Terminal Aerodrome Forecast
Issued by NWS

Home | Current Version | Previous Version | Text Only | Print | Product List | Glossary On
Versions: 1 2 3 4 5 6 7 8 9 10 11 12 13 14 15 16 17 18 19 20 21 22 23 24 25 26 27
000
FTUS43 KLOT 260520
TAFGYY
TAF
KGYY 260520Z 2606/2706 27008KT P6SM SCT060
     FM261500 28015G24KT P6SM BKN050
     FM262200 31014G22KT P6SM VCSH SCT045 BKN060
     FM270030 02012KT P6SM SCT060=

USA.gov is the U.S. government's official web portal to all federal, state and local government web resources and services.